Aeroporto :
LOGIN :

Iscrizione | Disclaimer

   EN    FR    IT 

 










Sommario :    VFR   VFR Marginale   IFR   IFR Intensivo   IFR Molto Intensivo
Visibilità : 
Base nubi : 
>= 8 km
>= 3000ft
5 / 8 km
1000 / 3000 ft
1500m / 5 km
500 / 1000 ft
800 / 1500m
200 / 500 ft
< 800m
< 200 ft
Simboli :   Temporali  Nebbia  Neve Forte  Precipitazioni Forti  Vento > 20 kt
SIGMETs :   Varie  Temporali  Ghiacco  Turbolenza  Onda orograficha  Ceneri Vulcaniche







- Altitudine del aeroporto : 0 ft
- Codice IATA : QFR


LIRH - Frosinone Military

ULTIMO METAR :
  • 210655Z 27002KT 0800 FG SCT003 00/M00 Q1027 RMK SCT MON INVIS NC VIS MIN 0800 WIND THR16 /////KT AMB

METARs OBSOLETI :
  • 210615Z 00000KT 0600 FZFG BKN003 M01/M02 Q1027 RMK BKN MON INVIS NC VIS MIN 0600 WIND THR16 /////KT RED
  • 210555Z 00000KT 1200 BR M01/M02 Q1027 RMK BKN MON INVIS VAR RAPID VIS MIN 1200 WIND THR16 /////KT RED
  • 210455Z 00000KT 1200 BR BKN003 00/M00 Q1026 RMK BKN MON INVIS VAR RAPID VIS MIN 1200 WIND THR16 /////KT AMB

TAF TAF LIRH
Valido dal 21 a 06 ore il 21 a 15 ore UTC


210500Z 2106/2115 VRB03KT 4000 BR SCT020
TEMPO 2106/2108 0800 FG BKN003
BECMG 2110/2112 6000 NSC
Nessun NOTAM noto per questo aeroporto.



MetMap, La meteo Aeronautica in un colpo d'occhio ! - Copyright ORBIFLY Dicembre 2007 - Disclaimer

ORBIFLY MET'MAP TEAM :

Programmazione e sviluppo : Alexandra Zaïnal
Concezione e sviluppo : Baudouin d'Aumeries
Co-Programmazione e sviluppo : Marc-Olivier Méhu
Supporto tecnico e logistico : Manuel Goepfert
Aiuto per la traduzione : Arnaldo La Scala

Contatto : metmap@orbifly.com




FONTI E CREDITI :

   NOAA